Time;durP1;ratioP1;P1;durP2;ratioP2;P2;SDS_P1;SDS_P2;PMS_P1;PMS_P2;Temp;Humidity;BMP_temperature;BMP_pressure;BME280_temperature;BME280_humidity;BME280_pressure;Samples;Min_cycle;Max_cycle;Signal;HPM_P1;HPM_P2
2024/01/08 00:01:14;;;;;;;14.13;4.80;;;;;;;-2.36;46.59;102697.81;5041680;28;20037;-37
2024/01/08 00:03:39;;;;;;;12.00;4.28;;;;;;;-2.24;46.79;102698.16;5040495;28;21002;-38
2024/01/08 00:06:05;;;;;;;7.75;3.50;;;;;;;-2.23;46.92;102710.22;5043244;28;20531;-38
2024/01/08 00:08:30;;;;;;;7.50;4.40;;;;;;;-2.15;46.40;102713.88;5045953;28;20037;-38
2024/01/08 00:10:56;;;;;;;10.50;5.65;;;;;;;-2.20;45.80;102709.41;5025752;28;20048;-38
2024/01/08 00:13:21;;;;;;;12.20;3.70;;;;;;;-2.10;46.26;102713.13;5038772;28;20031;-38
2024/01/08 00:15:46;;;;;;;5.85;2.72;;;;;;;-2.18;46.31;102711.19;5038303;28;20044;-38
2024/01/08 00:18:12;;;;;;;10.95;5.63;;;;;;;-2.17;45.99;102719.81;5042512;28;20056;-38
2024/01/08 00:20:37;;;;;;;3.13;2.17;;;;;;;-2.18;46.13;102718.06;5040798;28;20585;-38
2024/01/08 00:23:03;;;;;;;102.30;19.10;;;;;;;-2.57;46.37;102711.84;5037785;28;20044;-38
2024/01/08 00:25:28;;;;;;;8.40;4.13;;;;;;;-2.60;47.08;102709.19;5038784;28;20029;-39
2024/01/08 00:27:56;;;;;;;14.60;4.78;;;;;;;-2.43;46.85;102711.38;5036091;28;20635;-38
2024/01/08 00:30:22;;;;;;;8.43;4.63;;;;;;;-2.50;47.23;102716.38;5040360;28;20028;-38
2024/01/08 00:32:47;;;;;;;9.48;3.95;;;;;;;-2.47;47.20;102721.59;5041948;28;20035;-39
2024/01/08 00:35:13;;;;;;;10.82;3.50;;;;;;;-2.35;47.03;102720.19;5020619;28;20179;-39
2024/01/08 00:37:40;;;;;;;12.15;4.80;;;;;;;-2.53;46.84;102721.44;5036166;28;20445;-38
2024/01/08 00:40:10;;;;;;;9.05;4.07;;;;;;;-2.32;46.70;102725.41;5037599;28;20419;-38
2024/01/08 00:42:36;;;;;;;16.38;5.68;;;;;;;-2.18;46.37;102729.25;5040285;28;20033;-38
2024/01/08 00:45:03;;;;;;;10.75;3.58;;;;;;;-2.22;46.32;102730.03;5042130;28;20040;-38
2024/01/08 00:47:28;;;;;;;7.57;3.28;;;;;;;-2.35;46.21;102740.84;5037010;28;20033;-38
2024/01/08 00:49:53;;;;;;;8.52;4.30;;;;;;;-2.50;46.90;102737.00;5021650;28;20035;-38
2024/01/08 00:52:19;;;;;;;11.98;3.67;;;;;;;-2.52;47.02;102736.06;5040298;28;20033;-38
2024/01/08 00:54:47;;;;;;;6.93;3.65;;;;;;;-2.71;47.48;102736.34;5038960;28;20439;-38
2024/01/08 00:57:13;;;;;;;10.23;3.78;;;;;;;-2.64;47.42;102739.16;5046253;28;20033;-38
2024/01/08 00:59:38;;;;;;;12.27;5.32;;;;;;;-2.47;47.03;102742.22;5038381;28;20391;-38
2024/01/08 01:02:03;;;;;;;13.48;5.07;;;;;;;-2.55;47.04;102742.81;5036774;28;20047;-38
2024/01/08 01:04:29;;;;;;;13.32;4.22;;;;;;;-2.59;47.28;102746.16;5036863;28;20430;-38
2024/01/08 01:06:55;;;;;;;13.68;4.38;;;;;;;-2.47;46.95;102755.09;5038595;28;20056;-38
2024/01/08 01:09:20;;;;;;;13.95;4.75;;;;;;;-2.67;46.99;102753.66;5040417;28;20063;-38
2024/01/08 01:11:45;;;;;;;13.07;5.70;;;;;;;-2.57;47.54;102760.81;5035996;28;20044;-38
2024/01/08 01:14:11;;;;;;;7.88;3.60;;;;;;;-2.54;47.24;102762.59;5037803;28;20025;-38
2024/01/08 01:16:36;;;;;;;12.20;4.40;;;;;;;-2.41;47.22;102761.28;5034757;28;20407;-38
2024/01/08 01:19:02;;;;;;;7.93;4.28;;;;;;;-2.28;46.83;102762.50;5040591;28;20040;-38
2024/01/08 01:21:28;;;;;;;8.82;4.05;;;;;;;-2.38;46.94;102771.69;5036654;28;20040;-39
2024/01/08 01:23:54;;;;;;;10.02;4.25;;;;;;;-2.36;47.33;102762.28;5035910;28;20047;-39
2024/01/08 01:26:20;;;;;;;8.82;4.25;;;;;;;-2.34;47.08;102773.50;5040298;28;20059;-38
2024/01/08 01:28:46;;;;;;;7.25;4.18;;;;;;;-2.34;47.35;102773.50;5036228;28;20509;-39
2024/01/08 01:31:12;;;;;;;8.45;4.43;;;;;;;-2.23;46.68;102772.13;5032543;28;20033;-39
2024/01/08 01:33:37;;;;;;;11.60;4.50;;;;;;;-2.12;46.37;102775.00;5033916;28;20495;-38
2024/01/08 01:36:03;;;;;;;196.95;37.58;;;;;;;-2.24;46.67;102775.53;5039256;28;20036;-39
2024/01/08 01:38:29;;;;;;;9.02;3.75;;;;;;;-2.51;46.26;102771.34;5037775;28;20531;-38
2024/01/08 01:40:55;;;;;;;11.60;3.85;;;;;;;-2.23;47.45;102782.44;5032530;28;20032;-39
2024/01/08 01:43:25;;;;;;;9.95;4.53;;;;;;;-2.04;46.85;102773.50;5042265;28;20079;-38
2024/01/08 01:45:54;;;;;;;7.90;3.97;;;;;;;-2.11;46.76;102781.03;5038415;28;20043;-38
2024/01/08 01:48:21;;;;;;;3.75;2.15;;;;;;;-2.12;46.44;102792.19;5038275;28;20028;-38
2024/01/08 01:50:47;;;;;;;2.72;1.65;;;;;;;-2.29;46.38;102784.81;5038324;28;20045;-38
2024/01/08 01:53:13;;;;;;;6.47;4.55;;;;;;;-2.30;46.04;102781.38;5022193;28;20051;-38
2024/01/08 01:55:39;;;;;;;10.52;3.75;;;;;;;-2.17;45.97;102792.06;5035334;28;20025;-39
2024/01/08 01:58:06;;;;;;;6.93;3.80;;;;;;;-2.18;46.67;102796.31;5043053;28;20033;-38
2024/01/08 02:00:32;;;;;;;9.50;3.95;;;;;;;-2.07;46.11;102793.19;5039345;28;20060;-38
2024/01/08 02:02:58;;;;;;;11.00;4.57;;;;;;;-2.00;46.55;102793.41;5038202;28;20045;-38
2024/01/08 02:05:23;;;;;;;9.93;4.60;;;;;;;-1.80;46.25;102789.59;5039070;28;20614;-38
2024/01/08 02:07:49;;;;;;;5.82;3.35;;;;;;;-2.04;46.13;102795.84;5041813;28;20024;-38
2024/01/08 02:10:14;;;;;;;8.02;3.92;;;;;;;-1.95;46.54;102798.69;5037806;28;20028;-38
2024/01/08 02:12:40;;;;;;;7.15;4.03;;;;;;;-2.06;46.09;102795.78;5035387;28;20685;-38
2024/01/08 02:15:06;;;;;;;5.88;4.00;;;;;;;-2.02;46.09;102802.81;5040918;28;20053;-38
2024/01/08 02:17:31;;;;;;;7.05;4.10;;;;;;;-1.89;46.15;102805.72;5043482;28;20041;-38
2024/01/08 02:19:56;;;;;;;6.55;3.75;;;;;;;-1.91;46.11;102804.78;5035146;28;20522;-38
2024/01/08 02:22:22;;;;;;;7.25;3.50;;;;;;;-1.94;46.27;102803.00;5040126;28;20037;-38
2024/01/08 02:24:48;;;;;;;11.30;3.25;;;;;;;-1.90;45.72;102812.59;5038533;28;20043;-38
2024/01/08 02:27:13;;;;;;;9.82;3.53;;;;;;;-1.80;45.45;102810.25;5042234;28;20033;-38
2024/01/08 02:29:39;;;;;;;8.43;4.43;;;;;;;-1.72;46.04;102816.47;5039457;28;20483;-38
2024/01/08 02:32:06;;;;;;;10.18;4.82;;;;;;;-1.85;46.35;102821.31;5040000;28;20025;-39
2024/01/08 02:34:31;;;;;;;12.10;4.32;;;;;;;-2.11;46.14;102825.75;5036965;28;20097;-38
2024/01/08 02:36:57;;;;;;;7.72;4.65;;;;;;;-2.05;46.39;102830.22;5040490;28;20049;-38
2024/01/08 02:39:22;;;;;;;8.25;4.88;;;;;;;-2.01;46.14;102829.47;5038868;28;20041;-38
2024/01/08 02:41:48;;;;;;;7.30;3.33;;;;;;;-1.87;45.85;102829.84;5020998;28;20090;-39
2024/01/08 02:44:13;;;;;;;13.65;4.80;;;;;;;-1.84;45.71;102825.66;5023067;28;20038;-38
2024/01/08 02:46:38;;;;;;;7.18;4.05;;;;;;;-1.76;45.41;102831.03;5044239;28;20076;-38
2024/01/08 02:49:04;;;;;;;8.98;3.83;;;;;;;-2.00;45.79;102839.84;5043050;28;20060;-38
2024/01/08 02:51:29;;;;;;;11.25;4.28;;;;;;;-2.01;45.84;102839.78;5045736;28;20082;-38
2024/01/08 02:53:55;;;;;;;12.93;5.40;;;;;;;-2.04;46.69;102847.47;5043404;28;20041;-38
2024/01/08 02:56:21;;;;;;;7.72;4.18;;;;;;;-2.05;46.13;102846.56;5039308;28;20669;-39
2024/01/08 02:58:48;;;;;;;8.15;3.85;;;;;;;-1.90;46.40;102851.31;5039169;28;20150;-39
2024/01/08 03:01:13;;;;;;;6.65;2.95;;;;;;;-1.95;46.05;102859.72;5036270;28;20383;-38
2024/01/08 03:03:39;;;;;;;12.55;5.05;;;;;;;-1.84;45.88;102854.03;5037655;28;20518;-38
2024/01/08 03:06:04;;;;;;;10.02;4.20;;;;;;;-1.79;45.52;102861.03;5038770;28;20025;-38
2024/01/08 03:08:30;;;;;;;11.90;5.80;;;;;;;-2.06;46.18;102851.69;5038591;28;20180;-38
2024/01/08 03:10:55;;;;;;;9.07;3.55;;;;;;;-2.04;46.52;102860.38;5037548;28;20487;-38
2024/01/08 03:13:20;;;;;;;4.65;2.63;;;;;;;-2.06;45.53;102859.44;5037217;28;20059;-38
2024/01/08 03:15:46;;;;;;;6.03;3.60;;;;;;;-2.05;45.90;102864.63;5042439;28;20123;-38
2024/01/08 03:18:12;;;;;;;17.38;5.38;;;;;;;-1.99;46.08;102848.44;5046002;28;20074;-39
2024/01/08 03:20:38;;;;;;;9.93;4.90;;;;;;;-1.89;46.45;102863.34;5047163;28;20036;-38
2024/01/08 03:23:03;;;;;;;9.20;4.60;;;;;;;-1.80;46.52;102859.28;5050306;28;20037;-38
2024/01/08 03:25:29;;;;;;;10.30;4.50;;;;;;;-2.21;46.39;102857.28;5043936;28;20056;-38
2024/01/08 03:27:54;;;;;;;5.35;3.47;;;;;;;-1.87;47.05;102866.00;5049423;28;20439;-38
2024/01/08 03:30:20;;;;;;;10.45;4.50;;;;;;;-1.86;46.43;102863.44;5045878;28;20055;-38
2024/01/08 03:32:45;;;;;;;9.63;4.40;;;;;;;-1.81;46.30;102868.72;5046233;28;20108;-39
2024/01/08 03:35:11;;;;;;;187.93;38.72;;;;;;;-1.88;46.28;102867.69;5039734;28;20025;-39
2024/01/08 03:37:36;;;;;;;6.53;3.88;;;;;;;-1.91;46.76;102872.78;5041973;28;20492;-38
2024/01/08 03:40:04;;;;;;;211.55;69.28;;;;;;;-1.85;46.45;102875.50;5043942;28;20048;-38
2024/01/08 03:42:30;;;;;;;8.05;3.65;;;;;;;-1.77;47.15;102874.88;5044042;28;20032;-38
2024/01/08 03:44:55;;;;;;;8.80;4.28;;;;;;;-1.77;46.54;102873.16;5048177;28;20029;-38
2024/01/08 03:47:21;;;;;;;210.93;78.50;;;;;;;-1.60;45.98;102877.91;5038655;28;20032;-38
2024/01/08 03:49:46;;;;;;;17.98;6.53;;;;;;;-1.59;46.35;102880.53;5043085;28;20031;-38
2024/01/08 03:52:11;;;;;;;11.65;4.78;;;;;;;-1.57;46.42;102881.44;5038891;28;20064;-38
2024/01/08 03:54:37;;;;;;;6.65;2.85;;;;;;;-1.75;46.08;102888.69;5040533;28;20056;-39
2024/01/08 03:57:03;;;;;;;6.28;3.45;;;;;;;-1.84;46.24;102889.31;5045938;28;20033;-38
2024/01/08 03:59:28;;;;;;;384.63;132.70;;;;;;;-1.66;47.01;102882.91;5028780;28;20082;-39
2024/01/08 04:01:54;;;;;;;197.40;48.50;;;;;;;-1.60;46.74;102889.13;5045863;28;20110;-38
2024/01/08 04:04:19;;;;;;;9.85;4.55;;;;;;;-1.55;46.46;102887.53;5047694;28;20055;-38
2024/01/08 04:06:46;;;;;;;12.35;5.30;;;;;;;-1.48;47.36;102891.16;5042433;28;20169;-38
2024/01/08 04:09:14;;;;;;;15.30;4.63;;;;;;;-1.52;45.93;102891.03;5043934;28;20072;-38
2024/01/08 04:11:40;;;;;;;9.77;5.53;;;;;;;-1.46;45.96;102896.38;5040335;28;20491;-38
2024/01/08 04:14:06;;;;;;;13.77;4.22;;;;;;;-1.46;46.46;102896.38;5043461;28;20087;-39
2024/01/08 04:16:31;;;;;;;14.48;5.43;;;;;;;-1.33;46.70;102897.56;5037745;28;20032;-38
2024/01/08 04:18:56;;;;;;;9.38;4.57;;;;;;;-1.25;46.65;102891.75;5041660;28;20032;-38
2024/01/08 04:21:22;;;;;;;12.80;4.65;;;;;;;-1.39;46.86;102903.44;5043020;28;20029;-38
2024/01/08 04:23:47;;;;;;;8.98;3.17;;;;;;;-1.30;46.53;102919.19;5043175;28;20024;-39
2024/01/08 04:26:16;;;;;;;10.57;5.43;;;;;;;-1.13;46.26;102911.00;5040842;28;20061;-38
2024/01/08 04:28:42;;;;;;;10.35;4.97;;;;;;;-1.06;46.57;102912.06;5045347;28;20029;-38
2024/01/08 04:31:16;;;;;;;8.32;4.97;;;;;;;-0.95;46.04;102908.88;5024939;28;20032;-38
2024/01/08 04:33:41;;;;;;;11.10;5.30;;;;;;;-0.96;46.12;102914.88;5042978;28;20040;-38
2024/01/08 04:36:07;;;;;;;514.35;221.68;;;;;;;-0.86;46.18;102925.47;5044200;28;20037;-38
2024/01/08 04:38:32;;;;;;;11.18;5.68;;;;;;;-0.82;45.52;102927.28;5042252;28;20135;-38
2024/01/08 04:40:58;;;;;;;13.52;5.68;;;;;;;-0.80;45.32;102923.03;5038085;28;20098;-38
2024/01/08 04:43:23;;;;;;;17.23;4.75;;;;;;;-0.77;46.02;102929.16;5038820;28;20052;-39
2024/01/08 04:45:48;;;;;;;11.27;5.38;;;;;;;-0.76;45.70;102932.63;5043249;28;20119;-39
2024/01/08 04:48:14;;;;;;;13.77;6.47;;;;;;;-0.73;45.63;102942.16;5043217;28;20436;-38
2024/01/08 04:50:39;;;;;;;13.27;5.57;;;;;;;-0.72;46.10;102938.72;5043776;28;20108;-39
2024/01/08 04:53:04;;;;;;;12.77;6.20;;;;;;;-0.72;45.53;102937.03;5042395;28;20032;-39
2024/01/08 04:55:30;;;;;;;18.63;7.28;;;;;;;-0.73;46.03;102937.88;5038686;28;20068;-38
2024/01/08 04:57:55;;;;;;;398.42;155.82;;;;;;;-0.68;45.79;102940.56;5044296;28;20068;-38
2024/01/08 05:00:21;;;;;;;11.98;5.75;;;;;;;-0.70;45.36;102945.72;5040905;28;20052;-38
2024/01/08 05:02:46;;;;;;;16.58;5.70;;;;;;;-0.69;45.37;102950.03;5037567;28;20060;-38
2024/01/08 05:05:11;;;;;;;10.75;2.65;;;;;;;-0.64;45.66;102961.34;5040024;28;20087;-38
2024/01/08 05:07:37;;;;;;;13.05;6.57;;;;;;;-0.69;45.54;102956.91;5044450;28;20480;-38
2024/01/08 05:10:03;;;;;;;10.45;5.53;;;;;;;-0.73;45.43;102957.66;5041672;28;20028;-38
2024/01/08 05:12:28;;;;;;;15.50;6.82;;;;;;;-0.83;46.03;102957.44;5043879;28;20098;-38
2024/01/08 05:14:54;;;;;;;783.97;308.15;;;;;;;-0.79;45.43;102963.56;5040845;28;20041;-38
2024/01/08 05:17:19;;;;;;;15.80;8.23;;;;;;;-0.82;45.55;102964.38;5041303;28;20025;-38
2024/01/08 05:19:44;;;;;;;920.53;328.63;;;;;;;-1.10;46.06;102968.81;5040165;28;20025;-38
2024/01/08 05:22:10;;;;;;;8.43;4.18;;;;;;;-1.17;46.13;102973.78;5024566;28;20114;-38
2024/01/08 05:24:35;;;;;;;14.32;4.63;;;;;;;-1.20;46.52;102976.28;5041538;28;20049;-39
2024/01/08 05:27:00;;;;;;;15.35;5.97;;;;;;;-1.14;46.01;102971.28;5042429;28;20063;-39
2024/01/08 05:29:26;;;;;;;16.20;6.25;;;;;;;-1.07;46.41;102978.34;5039304;28;20538;-38
2024/01/08 05:31:51;;;;;;;16.02;6.93;;;;;;;-1.06;46.00;102974.94;5037281;28;20029;-38
2024/01/08 05:34:16;;;;;;;12.15;5.30;;;;;;;-1.04;45.89;102978.44;5040039;28;20071;-38
2024/01/08 05:36:42;;;;;;;636.75;228.32;;;;;;;-1.25;46.14;102973.56;5043235;28;20043;-38
2024/01/08 05:39:07;;;;;;;438.55;119.53;;;;;;;-1.12;46.23;102977.34;5042606;28;20506;-38
2024/01/08 05:41:34;;;;;;;10.02;6.03;;;;;;;-1.09;46.18;102982.59;5041736;28;20297;-39
2024/01/08 05:43:59;;;;;;;10.75;5.55;;;;;;;-1.17;46.18;102984.13;5042259;28;20056;-38
2024/01/08 05:46:24;;;;;;;10.02;3.95;;;;;;;-1.12;46.62;102979.91;5039969;28;20067;-38
2024/01/08 05:48:50;;;;;;;14.30;7.00;;;;;;;-1.26;47.13;102980.41;5039726;28;20106;-38
2024/01/08 05:51:17;;;;;;;9.73;5.90;;;;;;;-1.19;46.37;102978.03;5039320;28;20391;-38
2024/01/08 05:53:43;;;;;;;16.13;6.57;;;;;;;-1.16;46.01;102980.69;5043512;28;20037;-38
2024/01/08 05:56:08;;;;;;;15.63;7.38;;;;;;;-1.13;46.77;102988.50;5040229;28;20056;-38
2024/01/08 05:58:33;;;;;;;20.65;7.70;;;;;;;-1.24;46.28;102991.69;5046344;28;20048;-38
2024/01/08 06:00:59;;;;;;;6.07;3.25;;;;;;;-1.39;47.25;102992.13;5043553;28;20041;-39
2024/01/08 06:03:24;;;;;;;7.93;4.95;;;;;;;-1.29;47.03;102998.44;5042513;28;20249;-39
2024/01/08 06:05:50;;;;;;;12.63;5.90;;;;;;;-1.29;47.12;102998.44;5039101;28;20036;-38
2024/01/08 06:08:20;;;;;;;21.77;6.95;;;;;;;-1.30;47.42;103007.03;5037809;28;20045;-38
2024/01/08 06:10:47;;;;;;;14.18;5.35;;;;;;;-1.42;46.83;103001.50;5039290;28;20036;-38
2024/01/08 06:13:12;;;;;;;8.30;4.22;;;;;;;-1.49;47.01;103000.44;5042980;28;20399;-38
2024/01/08 06:15:38;;;;;;;12.93;5.40;;;;;;;-1.35;46.86;103003.44;5039897;28;20644;-38
2024/01/08 06:18:06;;;;;;;22.92;5.93;;;;;;;-1.30;46.91;103001.88;5038073;28;20037;-38
2024/01/08 06:20:33;;;;;;;11.43;6.35;;;;;;;-1.32;47.23;103006.09;5037821;28;20122;-39
2024/01/08 06:22:59;;;;;;;14.63;6.90;;;;;;;-1.44;47.04;103004.03;5043352;28;20035;-39
2024/01/08 06:25:24;;;;;;;20.67;7.72;;;;;;;-1.39;46.83;103007.63;5039584;28;20033;-38
2024/01/08 06:27:49;;;;;;;14.43;6.95;;;;;;;-1.33;46.42;103008.63;5035352;28;20029;-38
2024/01/08 06:30:17;;;;;;;13.57;6.28;;;;;;;-1.21;47.30;103015.84;5042854;28;20628;-38
2024/01/08 06:32:43;;;;;;;15.10;6.78;;;;;;;-1.23;46.79;103023.56;5036342;28;20040;-39
2024/01/08 06:35:08;;;;;;;11.63;5.63;;;;;;;-1.24;46.78;103022.69;5038096;28;20037;-39
2024/01/08 06:37:34;;;;;;;15.00;7.05;;;;;;;-1.18;46.93;103028.88;5038569;28;20467;-39
2024/01/08 06:39:59;;;;;;;9.85;5.28;;;;;;;-1.14;46.95;103038.47;5041672;28;20163;-38
2024/01/08 06:42:27;;;;;;;17.88;7.15;;;;;;;-1.10;46.67;103037.69;5042078;28;20032;-38
2024/01/08 06:44:52;;;;;;;13.82;6.50;;;;;;;-1.06;46.17;103029.19;5038797;28;20037;-39
2024/01/08 06:47:17;;;;;;;12.40;6.63;;;;;;;-1.01;46.13;103032.78;5028850;28;20025;-39
2024/01/08 06:49:43;;;;;;;17.30;6.65;;;;;;;-1.02;47.16;103037.91;5039874;28;20025;-38
2024/01/08 06:52:09;;;;;;;10.00;5.38;;;;;;;-1.09;47.00;103044.63;5036889;28;20492;-38
2024/01/08 06:54:34;;;;;;;13.63;5.00;;;;;;;-1.36;47.44;103048.16;5041277;28;20040;-39
2024/01/08 06:57:00;;;;;;;21.70;9.85;;;;;;;-1.64;47.95;103055.09;5042893;28;20037;-38
2024/01/08 06:59:26;;;;;;;16.27;7.80;;;;;;;-1.69;47.97;103051.50;5042177;28;20047;-39
2024/01/08 07:01:51;;;;;;;13.35;5.05;;;;;;;-1.60;48.10;103059.53;5040864;28;20037;-39
2024/01/08 07:04:17;;;;;;;14.50;5.65;;;;;;;-1.54;47.62;103072.63;5022440;28;20025;-38
2024/01/08 07:06:43;;;;;;;9.63;5.65;;;;;;;-1.56;48.24;103076.00;5014545;28;20045;-38
2024/01/08 07:09:08;;;;;;;11.85;5.50;;;;;;;-1.78;48.02;103080.47;5039497;28;20025;-38
2024/01/08 07:11:34;;;;;;;9.93;5.05;;;;;;;-1.65;47.69;103081.75;5040419;28;20033;-39
2024/01/08 07:13:59;;;;;;;13.98;4.70;;;;;;;-1.51;47.72;103084.72;5044579;28;20035;-39
2024/01/08 07:16:25;;;;;;;11.98;5.45;;;;;;;-1.47;47.23;103086.59;5036787;28;20057;-38
2024/01/08 07:18:51;;;;;;;16.13;6.63;;;;;;;-1.38;47.60;103096.31;5035528;28;20522;-39
2024/01/08 07:21:16;;;;;;;17.20;4.93;;;;;;;-1.31;47.29;103098.28;5031257;28;20123;-38
2024/01/08 07:23:47;;;;;;;14.52;5.90;;;;;;;-1.49;47.92;103103.72;5043662;28;20044;-38
2024/01/08 07:26:14;;;;;;;14.30;5.80;;;;;;;-1.50;47.81;103106.28;5039961;28;20643;-38
2024/01/08 07:28:41;;;;;;;18.58;6.03;;;;;;;-1.43;47.41;103105.63;5042642;28;20037;-38
2024/01/08 07:31:07;;;;;;;9.70;4.32;;;;;;;-1.56;47.65;103096.66;5044420;28;20033;-38
2024/01/08 07:33:33;;;;;;;14.13;6.25;;;;;;;-1.48;47.50;103109.78;5041051;28;20044;-39
2024/01/08 07:35:59;;;;;;;10.55;6.03;;;;;;;-1.43;47.52;103113.38;5042416;28;20024;-38
2024/01/08 07:38:24;;;;;;;10.73;5.85;;;;;;;-1.34;47.64;103107.63;5046408;28;20040;-38
2024/01/08 07:40:50;;;;;;;14.80;4.95;;;;;;;-1.44;47.81;103119.41;5030335;28;20130;-38
2024/01/08 07:43:15;;;;;;;12.48;6.15;;;;;;;-1.35;48.27;103121.34;5046584;28;20056;-39
2024/01/08 07:45:40;;;;;;;8.98;5.00;;;;;;;-1.26;48.05;103117.34;5040874;28;20033;-38
2024/01/08 07:48:06;;;;;;;10.80;4.97;;;;;;;-1.21;47.71;103116.63;5042529;28;20094;-39
2024/01/08 07:50:31;;;;;;;15.73;5.20;;;;;;;-1.22;47.29;103128.66;5049342;28;20040;-38
2024/01/08 07:52:57;;;;;;;11.45;6.13;;;;;;;-1.15;47.58;103130.59;5044690;28;20044;-38
2024/01/08 07:55:22;;;;;;;14.20;5.40;;;;;;;-1.12;47.83;103129.78;5047714;28;20029;-38
2024/01/08 07:57:48;;;;;;;6.95;4.13;;;;;;;-1.44;47.95;103130.59;5042118;28;20029;-38
2024/01/08 08:00:14;;;;;;;15.20;8.10;;;;;;;-1.31;48.42;103128.38;5041769;28;20021;-38
2024/01/08 08:02:39;;;;;;;20.95;6.78;;;;;;;-1.18;47.83;103130.50;5051271;28;20036;-38
2024/01/08 08:05:05;;;;;;;17.85;6.97;;;;;;;-1.13;47.69;103133.22;5050949;28;20025;-39
2024/01/08 08:07:32;;;;;;;1984.07;766.15;;;;;;;-1.16;47.93;103138.31;5046598;28;20044;-38
2024/01/08 08:09:57;;;;;;;13.07;5.53;;;;;;;-1.17;48.13;103146.88;5048814;28;20017;-39
2024/01/08 08:12:23;;;;;;;12.00;4.10;;;;;;;-1.41;47.50;103143.59;5045912;28;20043;-39
2024/01/08 08:14:48;;;;;;;9.93;4.72;;;;;;;-1.46;47.83;103146.88;5040655;28;20032;-38
2024/01/08 08:17:15;;;;;;;9.70;4.00;;;;;;;-1.51;47.69;103151.88;5043229;28;20033;-38
2024/01/08 08:19:42;;;;;;;8.65;4.15;;;;;;;-1.67;48.40;103154.81;5042462;28;20159;-38
2024/01/08 08:22:07;;;;;;;8.50;3.75;;;;;;;-1.58;48.00;103157.69;5044601;28;20080;-38
2024/01/08 08:24:33;;;;;;;11.95;5.93;;;;;;;-1.61;47.59;103160.16;5046011;28;20462;-38
2024/01/08 08:27:00;;;;;;;8.30;3.65;;;;;;;-1.85;48.24;103167.16;5045566;28;20665;-39
2024/01/08 08:29:25;;;;;;;8.20;4.97;;;;;;;-1.73;48.47;103174.44;5048461;28;20111;-39
2024/01/08 08:31:50;;;;;;;8.43;3.40;;;;;;;-1.96;48.37;103173.69;5048895;28;20035;-39
2024/01/08 08:34:16;;;;;;;14.82;6.18;;;;;;;-2.00;48.51;103182.13;5042604;28;20364;-38
2024/01/08 08:36:41;;;;;;;13.45;4.03;;;;;;;-2.30;49.16;103180.25;5045428;28;20052;-39
2024/01/08 08:39:07;;;;;;;9.43;4.50;;;;;;;-2.24;49.54;103177.00;5048143;28;20421;-38
2024/01/08 08:41:32;;;;;;;10.52;3.88;;;;;;;-2.12;49.31;103174.88;5049415;28;20466;-38
2024/01/08 08:43:58;;;;;;;9.05;3.50;;;;;;;-2.08;48.99;103184.44;5046703;28;20040;-39
2024/01/08 08:46:23;;;;;;;10.27;4.95;;;;;;;-1.93;48.70;103184.13;5048085;28;20060;-38
2024/01/08 08:48:49;;;;;;;16.10;4.43;;;;;;;-2.01;48.97;103181.28;5045576;28;20025;-38
2024/01/08 08:51:15;;;;;;;5.90;2.85;;;;;;;-2.22;48.71;103196.88;5041953;28;20036;-38
2024/01/08 08:53:40;;;;;;;12.98;4.30;;;;;;;-2.19;48.27;103203.84;5048259;28;20495;-38
2024/01/08 08:56:05;;;;;;;4.38;1.98;;;;;;;-2.49;49.00;103202.78;5044246;28;20114;-38
2024/01/08 08:58:31;;;;;;;5.38;2.45;;;;;;;-2.69;49.75;103198.63;5050467;28;20044;-38
2024/01/08 09:00:56;;;;;;;11.20;4.13;;;;;;;-2.48;49.81;103208.84;5030388;28;20033;-38
2024/01/08 09:03:22;;;;;;;8.35;4.63;;;;;;;-2.45;49.49;103215.00;5056370;28;20029;-38
2024/01/08 09:05:47;;;;;;;19.02;5.80;;;;;;;-2.32;49.31;103225.75;5045712;28;20407;-39
2024/01/08 09:08:13;;;;;;;10.18;4.20;;;;;;;-2.30;49.24;103227.56;5037825;28;20029;-38
2024/01/08 09:10:39;;;;;;;7.78;4.13;;;;;;;-2.24;49.35;103226.91;5048222;28;20032;-38
2024/01/08 09:13:04;;;;;;;5.60;3.65;;;;;;;-2.22;48.87;103233.00;5045871;28;20029;-38
2024/01/08 09:15:29;;;;;;;17.85;7.43;;;;;;;-2.02;49.47;103231.13;5046097;28;20025;-38
2024/01/08 09:17:55;;;;;;;8.07;3.75;;;;;;;-2.08;48.72;103232.63;5046112;28;20048;-38
2024/01/08 09:20:21;;;;;;;11.43;3.78;;;;;;;-2.09;48.56;103236.88;5047422;28;20030;-38
2024/01/08 09:22:46;;;;;;;1333.45;496.88;;;;;;;-2.08;48.22;103240.34;5045320;28;20036;-38
2024/01/08 09:25:12;;;;;;;8.52;3.53;;;;;;;-1.85;48.50;103239.44;5029044;28;20033;-38
2024/01/08 09:27:39;;;;;;;12.30;4.22;;;;;;;-1.90;48.80;103243.59;5044758;28;20037;-39
2024/01/08 09:30:06;;;;;;;15.35;4.50;;;;;;;-2.15;48.33;103247.88;5045831;28;20025;-38
2024/01/08 09:32:31;;;;;;;1627.88;711.53;;;;;;;-2.22;48.18;103252.75;5044555;28;20033;-39
2024/01/08 09:34:56;;;;;;;10.02;5.40;;;;;;;-2.30;48.89;103249.88;5046456;28;20101;-39
2024/01/08 09:37:22;;;;;;;10.32;4.28;;;;;;;-2.09;48.22;103249.78;5047112;28;20039;-40
2024/01/08 09:39:47;;;;;;;14.63;4.07;;;;;;;-2.02;48.04;103251.75;5031220;28;20182;-38
2024/01/08 09:42:14;;;;;;;5.78;4.03;;;;;;;-1.98;48.32;103252.75;5042472;28;20039;-38
2024/01/08 09:44:43;;;;;;;7.78;2.50;;;;;;;-1.97;48.33;103259.66;5044443;28;20028;-38
2024/01/08 09:47:09;;;;;;;10.82;4.28;;;;;;;-2.00;47.75;103254.38;5041819;28;20029;-39
2024/01/08 09:49:35;;;;;;;11.75;5.20;;;;;;;-1.91;48.02;103251.25;5042441;28;20044;-38
2024/01/08 09:52:04;;;;;;;4.95;3.50;;;;;;;-2.12;47.09;103252.28;5044800;28;20075;-39
2024/01/08 09:54:31;;;;;;;9.52;4.65;;;;;;;-1.89;48.19;103253.06;5043705;28;20615;-38
2024/01/08 09:56:59;;;;;;;9.75;3.05;;;;;;;-2.05;48.55;103243.91;5044029;28;20502;-40
2024/01/08 09:59:25;;;;;;;7.38;2.85;;;;;;;-1.85;48.30;103239.44;5045140;28;20051;-39
2024/01/08 10:01:51;;;;;;;8.25;3.97;;;;;;;-1.94;48.01;103238.22;5045510;28;20480;-38
2024/01/08 10:04:16;;;;;;;5.53;3.22;;;;;;;-1.89;47.75;103241.88;5043990;28;20060;-38
2024/01/08 10:06:44;;;;;;;4.07;2.28;;;;;;;-1.67;47.90;103240.88;5044619;28;20502;-38
2024/01/08 10:09:12;;;;;;;8.38;4.55;;;;;;;-1.66;47.63;103245.22;5040659;28;20028;-38
2024/01/08 10:11:39;;;;;;;9.93;3.72;;;;;;;-2.04;47.31;103247.38;5042768;28;20087;-39
2024/01/08 10:14:06;;;;;;;5.60;3.00;;;;;;;-1.75;47.56;103244.94;5042562;28;20116;-38
2024/01/08 10:16:32;;;;;;;10.63;4.70;;;;;;;-1.68;47.06;103244.28;5036722;28;20111;-39
2024/01/08 10:18:57;;;;;;;1816.20;796.28;;;;;;;-1.71;47.68;103241.59;5043225;28;20122;-38
2024/01/08 10:21:23;;;;;;;5.35;3.25;;;;;;;-1.69;47.20;103235.69;5049576;28;20446;-38
2024/01/08 10:23:48;;;;;;;8.35;3.17;;;;;;;-1.56;46.98;103236.94;5041848;28;20116;-38
2024/01/08 10:26:16;;;;;;;10.45;4.15;;;;;;;-1.46;46.49;103240.72;5006399;28;20024;-39
2024/01/08 10:28:41;;;;;;;14.50;5.50;;;;;;;-1.40;46.84;103238.34;5040274;28;20506;-38
2024/01/08 10:31:08;;;;;;;11.50;5.07;;;;;;;-1.39;46.86;103242.69;5040617;28;20033;-39
2024/01/08 10:33:34;;;;;;;6.25;4.68;;;;;;;-1.43;46.43;103238.25;5042775;28;20569;-40
2024/01/08 10:36:04;;;;;;;7.32;4.15;;;;;;;-1.28;47.21;103248.16;5039893;28;20144;-39
2024/01/08 10:38:33;;;;;;;280.08;83.07;;;;;;;-1.39;46.45;103250.44;5041134;28;20777;-39
2024/01/08 10:41:01;;;;;;;6.18;2.25;;;;;;;-1.35;46.82;103248.81;5042844;28;20024;-39
2024/01/08 10:43:28;;;;;;;5.32;2.03;;;;;;;-1.23;47.04;103246.63;5036255;28;20032;-39
2024/01/08 10:45:56;;;;;;;7.38;3.08;;;;;;;-1.29;46.17;103249.03;5042504;28;20056;-39
2024/01/08 10:48:27;;;;;;;10.98;3.92;;;;;;;-1.25;46.68;103253.44;5041042;28;20511;-39
2024/01/08 10:50:57;;;;;;;4.75;2.72;;;;;;;-1.27;46.11;103249.06;5041124;28;20034;-38
2024/01/08 10:53:46;;;;;;;3.53;2.05;;;;;;;-1.20;46.44;103244.97;5039796;28;20493;-39
2024/01/08 10:56:14;;;;;;;12.75;4.55;;;;;;;-1.28;46.87;103247.31;5036944;28;20102;-38
2024/01/08 10:58:51;;;;;;;4.07;2.17;;;;;;;-1.41;46.74;103240.84;5020766;28;20079;-38
2024/01/08 11:01:17;;;;;;;2.88;1.38;;;;;;;-1.28;45.82;103250.75;5033949;28;20033;-39
2024/01/08 11:03:44;;;;;;;4.50;3.25;;;;;;;-1.44;46.36;103251.13;5043097;28;20083;-38
2024/01/08 11:06:11;;;;;;;3.88;2.80;;;;;;;-1.39;46.94;103249.53;5039826;28;20021;-39
2024/01/08 11:08:37;;;;;;;11.05;3.55;;;;;;;-1.40;46.98;103250.38;5041115;28;20025;-39
2024/01/08 11:11:08;;;;;;;7.85;3.13;;;;;;;-1.22;47.05;103257.84;5047028;28;20040;-39
2024/01/08 11:13:34;;;;;;;3.80;2.38;;;;;;;-1.19;46.85;103254.47;5047968;28;20123;-39